Time;durP1;ratioP1;P1;durP2;ratioP2;P2;SDS_P1;SDS_P2;PMS_P1;PMS_P2;Temp;Humidity;BMP_temperature;BMP_pressure;BME280_temperature;BME280_humidity;BME280_pressure;Samples;Min_cycle;Max_cycle;Signal;HPM_P1;HPM_P2
2023/12/03 00:01:41;;;;;;;34.87;17.50;;;;;;;0.28;100.00;101775.69;5096086;28;20328;-58
2023/12/03 00:04:09;;;;;;;32.03;17.83;;;;;;;0.33;100.00;101788.75;5098849;28;20044;-58
2023/12/03 00:06:34;;;;;;;32.93;16.00;;;;;;;0.40;100.00;101785.22;5114145;28;20430;-58
2023/12/03 00:09:00;;;;;;;32.20;18.07;;;;;;;0.30;100.00;101773.94;5114063;28;20026;-58
2023/12/03 00:11:25;;;;;;;29.13;16.77;;;;;;;0.38;100.00;101780.00;5102302;28;20069;-59
2023/12/03 00:13:51;;;;;;;29.20;16.23;;;;;;;0.37;100.00;101783.47;5102975;28;20046;-57
2023/12/03 00:16:16;;;;;;;32.80;17.53;;;;;;;0.45;100.00;101775.59;5113163;28;20395;-58
2023/12/03 00:18:41;;;;;;;34.67;19.33;;;;;;;0.43;100.00;101785.19;5102919;28;20106;-57
2023/12/03 00:21:07;;;;;;;27.53;12.90;;;;;;;0.41;100.00;101772.13;5100143;28;20361;-58
2023/12/03 00:23:35;;;;;;;32.13;17.97;;;;;;;0.45;100.00;101781.69;5102989;28;20031;-58
2023/12/03 00:26:00;;;;;;;35.70;18.30;;;;;;;0.51;100.00;101785.16;5113678;28;20069;-57
2023/12/03 00:28:26;;;;;;;33.77;16.83;;;;;;;0.47;100.00;101783.41;5102303;28;20031;-58
2023/12/03 00:30:51;;;;;;;21.23;14.07;;;;;;;0.53;100.00;101786.00;5112790;28;20063;-58
2023/12/03 00:33:16;;;;;;;27.03;15.23;;;;;;;0.55;100.00;101786.84;5113482;28;20027;-58
2023/12/03 00:35:42;;;;;;;29.50;17.00;;;;;;;0.63;100.00;101792.91;5113204;28;20055;-58
2023/12/03 00:38:07;;;;;;;28.53;17.50;;;;;;;0.66;100.00;101792.91;5102164;28;20069;-58
2023/12/03 00:40:37;;;;;;;29.47;16.53;;;;;;;0.61;100.00;101794.66;5112985;28;20410;-58
2023/12/03 00:43:02;;;;;;;32.42;16.52;;;;;;;0.63;100.00;101792.91;5097799;28;20019;-58
2023/12/03 00:45:28;;;;;;;28.37;16.97;;;;;;;0.63;100.00;101787.69;5112331;28;20391;-58
2023/12/03 00:47:53;;;;;;;35.50;18.03;;;;;;;0.62;100.00;101788.56;5108411;28;20193;-58
2023/12/03 00:50:18;;;;;;;31.90;18.00;;;;;;;0.62;100.00;101794.66;5102246;28;20016;-57
2023/12/03 00:52:44;;;;;;;33.73;19.33;;;;;;;0.60;100.00;101798.19;5113236;28;20027;-58
2023/12/03 00:55:11;;;;;;;34.67;17.90;;;;;;;0.63;100.00;101791.16;5112804;28;20028;-58
2023/12/03 00:57:37;;;;;;;35.10;18.03;;;;;;;0.63;100.00;101804.25;5112311;28;20027;-58
2023/12/03 01:00:02;;;;;;;34.67;18.23;;;;;;;0.58;100.00;101795.56;5111775;28;20049;-58
2023/12/03 01:02:28;;;;;;;31.70;17.67;;;;;;;0.62;100.00;101804.28;5113184;28;20039;-58
2023/12/03 01:04:53;;;;;;;35.10;17.87;;;;;;;0.61;100.00;101797.28;5113091;28;20035;-58
2023/12/03 01:07:19;;;;;;;33.87;18.17;;;;;;;0.67;100.00;101803.34;5113435;28;20020;-58
2023/12/03 01:09:44;;;;;;;36.27;18.37;;;;;;;0.62;100.00;101809.50;5110253;28;20531;-58
2023/12/03 01:12:12;;;;;;;27.10;17.50;;;;;;;0.60;100.00;101798.19;5103595;28;20027;-58
2023/12/03 01:14:37;;;;;;;33.07;19.07;;;;;;;0.62;100.00;101806.91;5112512;28;20061;-58
2023/12/03 01:17:03;;;;;;;30.53;18.73;;;;;;;0.59;100.00;101804.28;5095003;28;20102;-58
2023/12/03 01:19:28;;;;;;;28.30;17.37;;;;;;;0.65;100.00;101815.59;5112970;28;20165;-58
2023/12/03 01:21:54;;;;;;;37.97;19.87;;;;;;;0.54;100.00;101803.44;5100687;28;20574;-58
2023/12/03 01:24:19;;;;;;;36.67;18.13;;;;;;;0.57;100.00;101809.53;5100815;28;20129;-58
2023/12/03 01:26:44;;;;;;;30.33;17.73;;;;;;;0.58;100.00;101808.63;5112198;28;20027;-57
2023/12/03 01:29:11;;;;;;;32.43;18.87;;;;;;;0.57;100.00;101804.28;5112332;28;20380;-58
2023/12/03 01:31:36;;;;;;;31.90;17.80;;;;;;;0.62;100.00;101820.00;5102061;28;20364;-57
2023/12/03 01:34:02;;;;;;;33.53;19.53;;;;;;;0.63;100.00;101813.84;5100120;28;20030;-58
2023/12/03 01:36:27;;;;;;;34.17;19.47;;;;;;;0.67;100.00;101823.41;5103106;28;20483;-58
2023/12/03 01:38:52;;;;;;;33.37;18.67;;;;;;;0.61;100.00;101821.72;5104041;28;20020;-57
2023/12/03 01:41:18;;;;;;;34.27;19.07;;;;;;;0.60;100.00;101811.25;5111623;28;20075;-58
2023/12/03 01:43:48;;;;;;;36.07;20.13;;;;;;;0.63;100.00;101819.09;5100883;28;20035;-58
2023/12/03 01:46:14;;;;;;;33.97;18.70;;;;;;;0.63;100.00;101821.72;5102726;28;20103;-58
2023/12/03 01:48:39;;;;;;;38.17;19.77;;;;;;;0.61;100.00;101821.72;5112336;28;20107;-59
2023/12/03 01:51:05;;;;;;;37.77;19.40;;;;;;;0.60;100.00;101822.59;5100951;28;20035;-57
2023/12/03 01:53:31;;;;;;;35.77;20.67;;;;;;;0.26;100.00;101768.72;5112008;28;20016;-57
2023/12/03 01:55:57;;;;;;;36.17;20.70;;;;;;;0.53;100.00;101820.00;5098025;28;20023;-57
2023/12/03 01:58:25;;;;;;;38.77;21.03;;;;;;;0.49;100.00;101810.47;5102393;28;20023;-57
2023/12/03 02:00:51;;;;;;;39.73;20.50;;;;;;;0.53;100.00;101825.25;5111245;28;20360;-57
2023/12/03 02:03:17;;;;;;;37.13;21.03;;;;;;;0.43;100.00;101825.31;5103468;28;20073;-57
2023/12/03 02:05:48;;;;;;;35.03;19.83;;;;;;;0.39;100.00;101831.44;5111541;28;20481;-58
2023/12/03 02:08:13;;;;;;;43.87;23.13;;;;;;;0.42;100.00;101820.97;5111481;28;20421;-58
2023/12/03 02:10:38;;;;;;;44.93;23.30;;;;;;;0.47;100.00;101830.53;5111653;28;20027;-58
2023/12/03 02:13:04;;;;;;;44.00;22.67;;;;;;;0.40;100.00;101822.69;5111313;28;20020;-58
2023/12/03 02:15:31;;;;;;;39.97;22.30;;;;;;;0.34;100.00;101827.97;5110801;28;20020;-57
2023/12/03 02:17:57;;;;;;;46.43;22.47;;;;;;;0.51;100.00;101835.75;5111239;28;20406;-58
2023/12/03 02:20:22;;;;;;;39.80;22.10;;;;;;;0.42;100.00;101836.66;5111119;28;20028;-57
2023/12/03 02:23:00;;;;;;;35.03;20.30;;;;;;;0.45;100.00;101833.16;5100215;28;20413;-58
2023/12/03 02:25:26;;;;;;;36.40;20.60;;;;;;;0.45;100.00;101835.78;5111058;28;20568;-58
2023/12/03 02:27:51;;;;;;;40.30;20.50;;;;;;;0.43;100.00;101833.16;5095801;28;20028;-57
2023/12/03 02:30:19;;;;;;;34.10;17.00;;;;;;;0.48;100.00;101833.16;5097618;28;20084;-57
2023/12/03 02:32:44;;;;;;;32.67;18.67;;;;;;;0.48;100.00;101830.53;5111487;28;20081;-57
2023/12/03 02:35:10;;;;;;;35.87;19.47;;;;;;;0.53;100.00;101836.63;5100580;28;20551;-57
2023/12/03 02:37:35;;;;;;;34.90;18.33;;;;;;;0.54;100.00;101838.34;5102961;28;20020;-57
2023/12/03 02:40:01;;;;;;;33.17;18.50;;;;;;;0.55;100.00;101833.97;5111047;28;20024;-57
2023/12/03 02:42:26;;;;;;;42.30;21.27;;;;;;;0.47;100.00;101827.91;5101042;28;20027;-57
2023/12/03 02:44:51;;;;;;;33.80;19.03;;;;;;;0.56;100.00;101838.31;5084032;28;20058;-58
2023/12/03 02:47:17;;;;;;;36.60;18.63;;;;;;;0.56;100.00;101836.59;5111009;28;20027;-58
2023/12/03 02:49:42;;;;;;;35.63;18.37;;;;;;;0.60;100.00;101843.53;5110321;28;20464;-58
2023/12/03 02:52:09;;;;;;;36.40;19.53;;;;;;;0.59;100.00;101839.19;5099951;28;20034;-57
2023/12/03 02:54:35;;;;;;;36.17;19.77;;;;;;;0.59;100.00;101835.69;5110134;28;20020;-58
2023/12/03 02:57:00;;;;;;;33.73;18.73;;;;;;;0.64;100.00;101841.75;5110402;28;20042;-58
2023/12/03 02:59:28;;;;;;;37.50;19.10;;;;;;;0.58;100.00;101833.94;5109996;28;20023;-58
2023/12/03 03:01:53;;;;;;;34.70;19.30;;;;;;;0.60;100.00;101832.19;5097843;28;20030;-58
2023/12/03 03:04:21;;;;;;;32.67;17.50;;;;;;;0.58;100.00;101831.34;5110659;28;20016;-57
2023/12/03 03:06:46;;;;;;;31.07;17.53;;;;;;;0.61;100.00;101836.53;5110799;28;20024;-58
2023/12/03 03:09:12;;;;;;;35.83;17.77;;;;;;;0.58;100.00;101837.44;5111179;28;20097;-57
2023/12/03 03:11:37;;;;;;;35.07;18.20;;;;;;;0.74;100.00;101840.84;5111056;28;20023;-58
2023/12/03 03:14:03;;;;;;;34.23;18.40;;;;;;;0.56;100.00;101841.81;5102481;28;20102;-58
2023/12/03 03:16:28;;;;;;;37.70;19.17;;;;;;;0.53;100.00;101836.63;5109738;28;20038;-58
2023/12/03 03:18:54;;;;;;;33.97;18.23;;;;;;;0.42;100.00;101833.19;5111017;28;20051;-58
2023/12/03 03:21:20;;;;;;;38.17;19.47;;;;;;;0.42;100.00;101826.19;5110186;28;20020;-57
2023/12/03 03:23:46;;;;;;;34.17;18.07;;;;;;;0.45;100.00;101833.16;5111197;28;20028;-58
2023/12/03 03:26:11;;;;;;;37.93;18.03;;;;;;;0.42;100.00;101841.03;5095882;28;20399;-58
2023/12/03 03:28:36;;;;;;;37.17;19.50;;;;;;;0.35;100.00;101839.31;5110783;28;20024;-58
2023/12/03 03:31:02;;;;;;;31.63;17.93;;;;;;;0.40;100.00;101827.94;5110191;28;20084;-58
2023/12/03 03:33:27;;;;;;;33.47;19.10;;;;;;;0.31;100.00;101834.97;5110821;28;20111;-58
2023/12/03 03:35:53;;;;;;;28.30;16.63;;;;;;;0.25;100.00;101824.53;5110769;28;20523;-57
2023/12/03 03:38:18;;;;;;;38.83;20.83;;;;;;;0.26;100.00;101834.97;5111038;28;20081;-57
2023/12/03 03:40:43;;;;;;;41.33;19.87;;;;;;;0.26;100.00;101842.81;5113637;28;20480;-58
2023/12/03 03:43:09;;;;;;;34.23;18.20;;;;;;;0.26;100.00;101836.72;5100163;28;20111;-58
2023/12/03 03:45:34;;;;;;;34.13;19.43;;;;;;;0.13;100.00;101815.00;5114172;28;20460;-58
2023/12/03 03:48:00;;;;;;;36.37;18.53;;;;;;;0.20;100.00;101833.25;5114715;28;20023;-58
2023/12/03 03:50:25;;;;;;;34.37;18.33;;;;;;;0.19;100.00;101835.91;5114284;28;20114;-57
2023/12/03 03:52:53;;;;;;;37.60;19.10;;;;;;;0.11;100.00;101829.81;5114295;28;20024;-58
2023/12/03 03:55:18;;;;;;;35.83;19.17;;;;;;;0.18;100.00;101849.88;5106532;28;20046;-58
2023/12/03 03:57:46;;;;;;;31.97;18.27;;;;;;;0.18;100.00;101855.97;5103766;28;20026;-57
2023/12/03 04:00:12;;;;;;;34.43;18.07;;;;;;;0.10;100.00;101855.13;5113257;28;20525;-58
2023/12/03 04:02:37;;;;;;;36.40;19.70;;;;;;;0.07;100.00;101859.50;5113765;28;20039;-58
2023/12/03 04:05:03;;;;;;;33.90;18.00;;;;;;;0.04;100.00;101862.97;5102435;28;20094;-58
2023/12/03 04:07:28;;;;;;;39.60;18.83;;;;;;;0.03;100.00;101866.47;5106267;28;20118;-57
2023/12/03 04:09:56;;;;;;;34.90;18.27;;;;;;;-0.02;100.00;101861.25;5113885;28;20085;-58
2023/12/03 04:12:21;;;;;;;33.10;18.00;;;;;;;-0.05;100.00;101852.56;5104550;28;20059;-58
2023/12/03 04:14:47;;;;;;;39.57;20.60;;;;;;;-0.05;100.00;101865.63;5112422;28;20058;-58
2023/12/03 04:17:12;;;;;;;38.10;19.50;;;;;;;-0.13;100.00;101862.16;5103719;28;20410;-58
2023/12/03 04:19:38;;;;;;;32.97;15.87;;;;;;;-0.14;100.00;101861.28;5113789;28;20556;-58
2023/12/03 04:22:03;;;;;;;39.90;19.77;;;;;;;-0.19;100.00;101865.66;5101819;28;20023;-58
2023/12/03 04:24:31;;;;;;;39.20;17.37;;;;;;;-0.17;100.00;101870.88;5113730;28;20023;-58
2023/12/03 04:26:56;;;;;;;35.83;19.17;;;;;;;-0.25;100.00;101869.16;5105491;28;20024;-58
2023/12/03 04:29:21;;;;;;;33.13;16.77;;;;;;;-0.26;100.00;101863.94;5101504;28;20026;-58
2023/12/03 04:31:49;;;;;;;34.83;18.90;;;;;;;-0.26;100.00;101866.56;5113484;28;20020;-58
2023/12/03 04:34:16;;;;;;;31.83;17.43;;;;;;;-0.30;100.00;101876.13;5102854;28;20027;-57
2023/12/03 04:36:43;;;;;;;32.93;18.77;;;;;;;-0.32;100.00;101877.88;5113495;27;20030;-57
2023/12/03 04:39:09;;;;;;;35.63;18.57;;;;;;;-0.32;100.00;101879.63;5113331;28;20023;-58
2023/12/03 04:41:35;;;;;;;35.80;19.30;;;;;;;-0.38;100.00;101870.06;5111405;28;20020;-58
2023/12/03 04:44:00;;;;;;;34.63;18.70;;;;;;;-0.38;100.00;101875.28;5101023;28;20020;-57
2023/12/03 04:46:28;;;;;;;33.93;18.07;;;;;;;-0.49;100.00;101867.44;5107194;28;20488;-58
2023/12/03 04:48:54;;;;;;;41.03;18.07;;;;;;;-0.44;100.00;101880.53;5112911;28;20045;-58
2023/12/03 04:51:19;;;;;;;34.80;17.13;;;;;;;-0.45;100.00;101876.16;5099665;28;20019;-58
2023/12/03 04:53:44;;;;;;;33.30;17.63;;;;;;;-0.53;100.00;101870.94;5113422;28;20047;-57
2023/12/03 04:56:10;;;;;;;35.27;19.37;;;;;;;-0.49;100.00;101884.88;5105182;28;20023;-58
2023/12/03 04:58:35;;;;;;;32.20;17.43;;;;;;;-0.49;100.00;101879.66;5112729;28;20062;-58
2023/12/03 05:01:02;;;;;;;36.73;19.77;;;;;;;-0.57;100.00;101876.16;5111619;28;20085;-58
2023/12/03 05:03:27;;;;;;;41.00;19.80;;;;;;;-0.59;100.00;101884.00;5111894;28;20040;-58
2023/12/03 05:05:53;;;;;;;37.30;19.63;;;;;;;-0.58;100.00;101882.28;5112465;28;20026;-58
2023/12/03 05:08:18;;;;;;;42.90;18.40;;;;;;;-0.61;100.00;101882.28;5100254;28;20050;-58
2023/12/03 05:10:43;;;;;;;36.53;19.00;;;;;;;-0.64;100.00;101883.13;5102518;28;20055;-57
2023/12/03 05:13:09;;;;;;;44.47;19.57;;;;;;;-0.65;100.00;101888.34;5113094;28;20023;-58
2023/12/03 05:15:39;;;;;;;36.50;19.73;;;;;;;-0.75;100.00;101879.66;5102034;28;20450;-58
2023/12/03 05:18:04;;;;;;;;;;;;;;;-0.66;100.00;101891.84;5113325;28;20176;-58
2023/12/03 05:20:30;;;;;;;48.73;21.83;;;;;;;-0.77;100.00;101887.47;5100187;28;19928;-57
2023/12/03 05:22:55;;;;;;;43.70;20.33;;;;;;;-0.77;100.00;101891.81;5102032;28;20038;-58
2023/12/03 05:25:21;;;;;;;43.30;21.20;;;;;;;-0.78;100.00;101890.97;5112311;28;20062;-58
2023/12/03 05:27:46;;;;;;;35.00;20.43;;;;;;;-0.83;100.00;101897.03;5112627;28;20032;-58
2023/12/03 05:30:15;;;;;;;35.70;17.37;;;;;;;-0.86;100.00;101887.47;5102934;28;20247;-58
2023/12/03 05:32:43;;;;;;;40.53;21.80;;;;;;;-0.90;100.00;101888.34;5094355;28;20027;-58
2023/12/03 05:35:10;;;;;;;48.77;22.77;;;;;;;-0.90;100.00;101892.69;5101523;28;20118;-58
2023/12/03 05:37:35;;;;;;;38.20;19.20;;;;;;;-0.96;100.00;101881.38;5098602;28;20184;-58
2023/12/03 05:40:01;;;;;;;38.03;19.33;;;;;;;-0.96;100.00;101896.16;5107364;28;20539;-57
2023/12/03 05:42:26;;;;;;;41.50;19.67;;;;;;;-0.97;100.00;101895.31;5103062;28;20110;-57
2023/12/03 05:44:51;;;;;;;39.07;18.60;;;;;;;-0.99;100.00;101897.03;5111484;28;20227;-60
2023/12/03 05:47:17;;;;;;;39.00;17.87;;;;;;;-0.99;100.00;101902.25;5099917;28;20032;-58
2023/12/03 05:49:44;;;;;;;38.30;20.23;;;;;;;-1.04;100.00;101890.94;5111759;28;20035;-57
2023/12/03 05:52:14;;;;;;;40.70;18.20;;;;;;;-1.09;100.00;101892.66;5112414;28;20110;-57
2023/12/03 05:54:42;;;;;;;42.13;19.87;;;;;;;-1.10;100.00;101897.88;5097570;28;20028;-57
2023/12/03 05:57:07;;;;;;;37.93;18.63;;;;;;;-1.15;100.00;101897.84;5098633;28;20030;-57
2023/12/03 05:59:33;;;;;;;45.13;19.80;;;;;;;-1.14;100.00;101899.63;5098345;28;20023;-58
2023/12/03 06:01:58;;;;;;;38.90;19.33;;;;;;;-1.17;100.00;101897.00;5101171;28;20054;-57
2023/12/03 06:04:24;;;;;;;44.40;20.03;;;;;;;-1.29;100.00;101887.41;5111808;28;20090;-58
2023/12/03 06:06:49;;;;;;;36.30;17.77;;;;;;;-1.18;100.00;101908.28;5094445;28;20126;-57
2023/12/03 06:09:14;;;;;;;40.77;17.50;;;;;;;-1.19;100.00;101911.78;5104822;28;20019;-57
2023/12/03 06:11:40;;;;;;;33.20;18.10;;;;;;;-1.30;100.00;101896.09;5111596;28;20412;-57
2023/12/03 06:14:05;;;;;;;39.23;18.40;;;;;;;-1.25;100.00;101907.41;5097776;28;20034;-57
2023/12/03 06:16:31;;;;;;;37.80;18.87;;;;;;;-1.23;100.00;101913.53;5099107;28;20031;-57
2023/12/03 06:18:56;;;;;;;38.67;19.60;;;;;;;-1.21;100.00;101916.97;5111893;28;20059;-57
2023/12/03 06:21:22;;;;;;;39.37;19.40;;;;;;;-1.24;100.00;101922.19;5111174;28;20023;-57
2023/12/03 06:23:48;;;;;;;39.40;17.40;;;;;;;-1.28;100.00;101915.25;5111787;28;20398;-57
2023/12/03 06:26:13;;;;;;;38.93;18.03;;;;;;;-1.25;100.00;101924.81;5097030;28;20479;-57
2023/12/03 06:28:39;;;;;;;38.07;18.43;;;;;;;-1.28;100.00;101917.84;5101049;28;20390;-58
2023/12/03 06:31:06;;;;;;;32.40;16.90;;;;;;;-1.22;100.00;101919.59;5098520;28;20084;-58
2023/12/03 06:33:31;;;;;;;49.30;19.13;;;;;;;-1.17;100.00;101920.50;5102554;28;20102;-58
2023/12/03 06:35:57;;;;;;;36.23;16.83;;;;;;;-1.16;100.00;101914.41;5110916;28;20456;-57
2023/12/03 06:38:23;;;;;;;35.97;17.57;;;;;;;-1.17;100.00;101908.31;5110904;28;20387;-58
2023/12/03 06:40:48;;;;;;;38.00;18.40;;;;;;;-1.21;100.00;101897.84;5100374;28;20035;-57
2023/12/03 06:43:14;;;;;;;32.77;18.67;;;;;;;-1.19;100.00;101904.81;5100301;28;20446;-57
2023/12/03 06:45:39;;;;;;;38.40;20.10;;;;;;;-1.20;100.00;101902.22;5110724;28;20441;-58
2023/12/03 06:48:05;;;;;;;40.77;18.87;;;;;;;-1.19;100.00;101909.19;5096762;28;20444;-57
2023/12/03 06:50:31;;;;;;;39.90;18.70;;;;;;;-1.24;100.00;101905.66;5111263;28;20100;-58
2023/12/03 06:52:57;;;;;;;34.93;17.27;;;;;;;-1.26;100.00;101905.69;5112252;28;20036;-58
2023/12/03 06:55:22;;;;;;;33.43;16.00;;;;;;;-1.23;100.00;101910.03;5095583;28;20048;-57
2023/12/03 06:57:47;;;;;;;40.83;19.33;;;;;;;-1.26;100.00;101905.69;5110923;28;20561;-57
2023/12/03 07:00:13;;;;;;;37.50;18.10;;;;;;;-1.29;100.00;101905.69;5098201;28;20032;-58
2023/12/03 07:02:39;;;;;;;37.50;18.70;;;;;;;-1.31;100.00;101896.09;5110129;28;20056;-58
2023/12/03 07:05:05;;;;;;;37.70;17.83;;;;;;;-1.29;100.00;101900.47;5095302;28;20026;-58
2023/12/03 07:07:32;;;;;;;36.87;18.17;;;;;;;-1.29;100.00;101902.19;5111335;28;20018;-58
2023/12/03 07:09:58;;;;;;;39.80;18.97;;;;;;;-1.31;100.00;101906.53;5098204;28;20538;-58
2023/12/03 07:12:24;;;;;;;38.83;16.90;;;;;;;-1.31;100.00;101901.31;5082045;28;20094;-58
2023/12/03 07:14:49;;;;;;;37.90;19.30;;;;;;;-1.33;100.00;101909.13;5109151;28;20031;-57
2023/12/03 07:17:17;;;;;;;28.57;14.47;;;;;;;-1.33;100.00;101910.88;5109603;28;20023;-58
2023/12/03 07:19:43;;;;;;;36.70;18.07;;;;;;;-1.39;100.00;101915.19;5110716;28;20026;-58
2023/12/03 07:22:12;;;;;;;35.37;17.23;;;;;;;-1.35;100.00;101923.94;5110514;28;20027;-58
2023/12/03 07:24:38;;;;;;;34.40;16.83;;;;;;;-1.38;100.00;101918.69;5109984;28;20030;-58
2023/12/03 07:27:04;;;;;;;44.07;18.97;;;;;;;-1.39;100.00;101920.41;5110730;28;20031;-58
2023/12/03 07:29:30;;;;;;;34.17;17.07;;;;;;;-1.34;100.00;101930.88;5095178;28;20019;-57
2023/12/03 07:31:55;;;;;;;39.17;17.83;;;;;;;-1.41;100.00;101922.16;5110560;28;20059;-58
2023/12/03 07:34:20;;;;;;;31.27;15.83;;;;;;;-1.34;100.00;101933.47;5102207;28;20467;-58
2023/12/03 07:36:46;;;;;;;36.93;17.67;;;;;;;-1.35;100.00;101928.25;5109927;28;20032;-58
2023/12/03 07:39:11;;;;;;;37.30;17.53;;;;;;;-1.35;100.00;101923.03;5097649;28;20127;-58
2023/12/03 07:41:37;;;;;;;35.10;19.53;;;;;;;-1.41;100.00;101932.59;5100128;28;20020;-58
2023/12/03 07:44:02;;;;;;;33.20;18.13;;;;;;;-1.36;100.00;101940.44;5096185;28;20031;-57
2023/12/03 07:46:27;;;;;;;40.10;18.17;;;;;;;-1.39;100.00;101933.47;5101718;28;20034;-58
2023/12/03 07:48:53;;;;;;;40.13;17.53;;;;;;;-1.33;100.00;101935.22;5100634;28;20403;-58
2023/12/03 07:51:18;;;;;;;38.07;17.07;;;;;;;-1.32;100.00;101926.53;5109731;28;20511;-58
2023/12/03 07:53:46;;;;;;;30.60;16.20;;;;;;;-1.32;100.00;101920.44;5099530;28;20023;-58
2023/12/03 07:56:12;;;;;;;38.37;18.27;;;;;;;-1.42;100.00;101915.19;5107184;28;20027;-58
2023/12/03 07:58:38;;;;;;;37.07;17.17;;;;;;;-1.34;100.00;101932.63;5097730;28;20114;-58
2023/12/03 08:01:05;;;;;;;38.10;18.37;;;;;;;-1.35;100.00;101930.84;5098495;28;20102;-58
2023/12/03 08:03:30;;;;;;;34.00;17.03;;;;;;;-1.31;100.00;101930.03;5101016;28;20043;-58
2023/12/03 08:05:56;;;;;;;38.93;19.17;;;;;;;-1.31;100.00;101930.88;5109663;28;20030;-58
2023/12/03 08:08:23;;;;;;;45.40;18.70;;;;;;;-1.25;100.00;101937.88;5109610;28;21256;-57
2023/12/03 08:10:49;;;;;;;36.03;19.13;;;;;;;-1.24;100.00;101943.06;5098744;28;20028;-58
2023/12/03 08:13:14;;;;;;;37.60;19.17;;;;;;;-1.21;100.00;101944.81;5109934;28;20032;-58
2023/12/03 08:15:40;;;;;;;37.67;17.97;;;;;;;-1.25;100.00;101946.56;5098247;28;20023;-58
2023/12/03 08:18:08;;;;;;;33.83;17.93;;;;;;;-1.24;100.00;101945.69;5100303;28;20023;-58
2023/12/03 08:20:35;;;;;;;40.27;18.10;;;;;;;-1.22;100.00;101945.69;5109693;28;20019;-58
2023/12/03 08:23:01;;;;;;;45.93;17.47;;;;;;;-1.20;100.00;101949.19;5096887;28;20072;-58
2023/12/03 08:25:29;;;;;;;32.30;17.00;;;;;;;-1.16;100.00;101951.81;5098719;28;20605;-58
2023/12/03 08:27:56;;;;;;;41.67;19.03;;;;;;;-1.21;100.00;101932.66;5113562;28;20104;-58
2023/12/03 08:30:23;;;;;;;35.83;16.63;;;;;;;-1.13;100.00;101947.47;5113406;28;20019;-58
2023/12/03 08:32:48;;;;;;;40.37;18.43;;;;;;;-1.12;100.00;101959.66;5113732;28;20117;-57
2023/12/03 08:35:13;;;;;;;39.77;19.63;;;;;;;-1.15;100.00;101955.28;5113228;28;20023;-57
2023/12/03 08:37:39;;;;;;;35.20;17.57;;;;;;;-1.12;100.00;101967.47;5113282;28;20027;-58
2023/12/03 08:40:05;;;;;;;41.87;17.53;;;;;;;-1.08;100.00;101961.41;5113464;28;20015;-58
2023/12/03 08:42:30;;;;;;;27.93;15.73;;;;;;;-1.02;100.00;101959.69;5102814;28;20021;-57
2023/12/03 08:44:55;;;;;;;36.00;17.27;;;;;;;-1.04;100.00;101953.59;5113082;28;20110;-58
2023/12/03 08:47:21;;;;;;;37.50;18.00;;;;;;;-0.93;100.00;101972.75;5101680;28;20020;-58
2023/12/03 08:49:46;;;;;;;37.93;18.77;;;;;;;-0.95;100.00;101960.56;5113571;28;20024;-58
2023/12/03 08:52:12;;;;;;;39.77;19.33;;;;;;;-0.90;100.00;101957.97;5113139;28;20060;-58
2023/12/03 08:54:40;;;;;;;29.50;16.13;;;;;;;-0.79;100.00;101972.81;5099669;28;20076;-58
2023/12/03 08:57:06;;;;;;;40.40;19.20;;;;;;;-0.78;100.00;101976.28;5113200;28;20058;-58
2023/12/03 08:59:31;;;;;;;35.97;18.13;;;;;;;-0.73;100.00;101969.34;5101678;28;20110;-58
2023/12/03 09:01:56;;;;;;;27.57;15.03;;;;;;;-0.67;99.62;101976.31;5099132;28;20031;-58
2023/12/03 09:04:22;;;;;;;36.70;16.93;;;;;;;-0.66;99.31;101971.06;5112905;28;20097;-58
2023/12/03 09:06:47;;;;;;;40.77;19.77;;;;;;;-0.73;98.66;101974.56;5112618;28;20500;-58
2023/12/03 09:09:13;;;;;;;34.10;16.77;;;;;;;-0.73;98.77;101975.41;5098793;28;20028;-58
2023/12/03 09:11:42;;;;;;;33.43;15.87;;;;;;;-0.79;98.41;101970.19;5101108;28;20020;-58
2023/12/03 09:14:10;;;;;;;36.75;16.92;;;;;;;-0.73;98.31;101978.03;5102549;28;20027;-58
2023/12/03 09:16:35;;;;;;;30.33;16.80;;;;;;;-0.71;97.73;101984.16;5098027;28;20066;-58
2023/12/03 09:19:01;;;;;;;32.40;16.53;;;;;;;-0.75;98.32;101981.50;5112884;28;20019;-58
2023/12/03 09:21:26;;;;;;;31.63;17.43;;;;;;;-0.72;97.61;101968.44;5103685;28;20066;-58
2023/12/03 09:23:51;;;;;;;28.90;15.37;;;;;;;-0.62;98.37;101978.03;5104912;28;20043;-58
2023/12/03 09:26:17;;;;;;;37.60;17.70;;;;;;;-0.66;97.48;101975.44;5112928;28;20027;-58
2023/12/03 09:28:45;;;;;;;32.93;15.93;;;;;;;-0.71;97.18;101976.31;5103541;28;20489;-58
2023/12/03 09:31:10;;;;;;;33.83;16.30;;;;;;;-0.61;97.29;101992.00;5112402;28;20106;-58
2023/12/03 09:33:36;;;;;;;37.07;15.67;;;;;;;-0.58;96.35;101992.84;5112228;28;20102;-58
2023/12/03 09:36:02;;;;;;;33.77;15.83;;;;;;;-0.57;96.90;101978.06;5102335;28;20026;-58
2023/12/03 09:38:27;;;;;;;35.63;16.87;;;;;;;-0.50;95.67;101980.69;5080178;28;20024;-58
2023/12/03 09:40:55;;;;;;;37.47;17.73;;;;;;;-0.47;96.32;101975.47;5091116;28;20020;-58
2023/12/03 09:43:21;;;;;;;28.90;15.20;;;;;;;-0.40;96.04;101973.72;5094360;28;20019;-58
2023/12/03 09:45:47;;;;;;;35.60;17.97;;;;;;;-0.37;95.02;101968.47;5093690;28;20027;-58
2023/12/03 09:48:14;;;;;;;31.50;15.97;;;;;;;-0.41;94.61;101956.31;5112100;28;20472;-58
2023/12/03 09:50:43;;;;;;;30.10;16.57;;;;;;;-0.27;95.16;101977.19;5081026;28;20464;-58
2023/12/03 09:53:12;;;;;;;29.17;16.17;;;;;;;-0.22;95.03;101964.13;5101784;28;20038;-58
2023/12/03 09:55:40;;;;;;;29.20;15.67;;;;;;;-0.17;94.08;101970.22;5098408;28;20024;-58
2023/12/03 09:58:10;;;;;;;35.07;15.87;;;;;;;-0.12;94.16;101977.22;5101283;28;20077;-58
2023/12/03 10:00:39;;;;;;;36.13;14.80;;;;;;;-0.03;93.59;101971.97;5100723;28;20027;-58
2023/12/03 10:03:05;;;;;;;29.93;15.83;;;;;;;-0.04;92.83;101983.28;5112258;27;20057;-57
2023/12/03 10:05:31;;;;;;;27.17;14.53;;;;;;;-0.03;92.66;101969.34;5094711;28;20110;-58
2023/12/03 10:07:57;;;;;;;35.57;16.50;;;;;;;0.01;91.82;101978.06;5093696;28;20032;-58
2023/12/03 10:10:28;;;;;;;31.87;15.00;;;;;;;0.03;92.20;101963.25;5112801;28;20023;-58
2023/12/03 10:12:55;;;;;;;30.87;17.60;;;;;;;0.03;92.99;101965.84;5112972;28;20031;-58
2023/12/03 10:15:21;;;;;;;26.37;14.33;;;;;;;0.06;91.68;101962.34;5112070;28;20395;-58
2023/12/03 10:17:48;;;;;;;36.50;17.37;;;;;;;0.04;91.10;101959.75;5104513;28;20035;-58
2023/12/03 10:20:20;;;;;;;29.67;15.63;;;;;;;0.07;91.38;101954.50;5103493;28;20031;-58
2023/12/03 10:22:46;;;;;;;31.30;13.97;;;;;;;0.11;91.05;101963.22;5112346;28;20062;-58
2023/12/03 10:25:24;;;;;;;33.03;15.13;;;;;;;0.13;91.60;101951.88;5105951;28;20058;-58
2023/12/03 10:27:52;;;;;;;26.90;15.37;;;;;;;0.20;90.59;101952.72;5111930;28;20027;-58
2023/12/03 10:30:18;;;;;;;30.53;16.40;;;;;;;0.25;89.90;101944.88;5110596;28;20310;-58
2023/12/03 10:32:45;;;;;;;24.60;13.17;;;;;;;0.30;90.90;101938.75;5111718;28;20036;-58
2023/12/03 10:35:11;;;;;;;32.57;15.23;;;;;;;0.31;89.18;101932.66;5111368;28;20031;-58
2023/12/03 10:37:39;;;;;;;20.37;12.83;;;;;;;0.43;89.52;101931.72;5111492;28;20024;-58
2023/12/03 10:40:06;;;;;;;28.87;15.47;;;;;;;0.55;87.64;101942.16;5111062;28;20024;-58
2023/12/03 10:42:36;;;;;;;29.27;13.63;;;;;;;0.70;87.53;101937.72;5109269;28;20590;-58
2023/12/03 10:45:15;;;;;;;28.70;15.85;;;;;;;0.71;87.19;101915.88;5108734;28;20027;-58
2023/12/03 10:47:42;;;;;;;21.88;12.65;;;;;;;0.88;85.93;101928.03;5111077;28;20051;-58
2023/12/03 10:50:10;;;;;;;25.10;13.43;;;;;;;0.98;85.61;101928.84;5110312;28;20027;-58
2023/12/03 10:52:37;;;;;;;26.70;14.23;;;;;;;1.05;84.57;101925.31;5111550;28;20045;-58
2023/12/03 10:55:06;;;;;;;22.50;13.63;;;;;;;1.23;83.22;101928.69;5111169;28;20439;-58
2023/12/03 10:57:34;;;;;;;26.67;13.45;;;;;;;1.50;82.97;101933.75;5111681;28;20031;-58
2023/12/03 11:00:10;;;;;;;18.80;11.87;;;;;;;1.91;80.64;101923.75;5110688;28;20444;-58
2023/12/03 11:02:45;;;;;;;21.73;12.03;;;;;;;2.22;80.85;101919.91;5096955;28;20067;-58